Time;durP1;ratioP1;P1;durP2;ratioP2;P2;SDS_P1;SDS_P2;PMS_P1;PMS_P2;Temp;Humidity;BMP_temperature;BMP_pressure;BME280_temperature;BME280_humidity;BME280_pressure;Samples;Min_cycle;Max_cycle;Signal;HPM_P1;HPM_P2
2023/04/10 00:01:43;;;;;;;11.05;4.68;;;;;;;10.40;49.35;100277.66;4483354;31;35080;-64
2023/04/10 00:04:11;;;;;;;7.37;3.70;;;;;;;10.44;50.04;100283.66;4492967;31;34990;-62
2023/04/10 00:06:40;;;;;;;11.30;5.82;;;;;;;10.39;50.07;100264.37;4496300;31;34677;-63
2023/04/10 00:09:08;;;;;;;7.97;5.12;;;;;;;10.51;50.23;100265.38;4495285;31;33415;-63
2023/04/10 00:11:36;;;;;;;5.50;3.53;;;;;;;10.45;50.22;100272.00;4491970;31;33993;-63
2023/04/10 00:14:04;;;;;;;6.35;3.70;;;;;;;10.45;50.30;100269.31;4493088;31;33692;-65
2023/04/10 00:16:31;;;;;;;11.68;7.35;;;;;;;10.51;50.08;100260.03;4489775;31;34337;-64
2023/04/10 00:18:59;;;;;;;7.12;4.72;;;;;;;10.21;50.79;100261.06;4496229;31;34272;-64
2023/04/10 00:21:27;;;;;;;6.53;4.57;;;;;;;9.89;50.96;100257.78;4494319;31;33819;-66
2023/04/10 00:23:54;;;;;;;11.98;4.10;;;;;;;10.15;50.45;100254.28;4495475;31;34851;-64
2023/04/10 00:26:22;;;;;;;9.25;4.40;;;;;;;10.17;50.45;100255.03;4491828;31;33480;-64
2023/04/10 00:28:50;;;;;;;7.12;4.53;;;;;;;10.00;51.09;100253.44;4482263;31;33222;-64
2023/04/10 00:31:17;;;;;;;9.02;5.03;;;;;;;9.62;51.93;100258.56;4483192;31;33423;-63
2023/04/10 00:33:45;;;;;;;9.18;4.45;;;;;;;9.52;51.99;100255.59;4497578;31;33728;-64
2023/04/10 00:36:12;;;;;;;6.65;4.95;;;;;;;9.51;52.01;100255.69;4492942;31;34146;-63
2023/04/10 00:38:40;;;;;;;7.62;4.70;;;;;;;9.74;51.45;100255.13;4496517;31;34533;-63
2023/04/10 00:41:07;;;;;;;7.55;5.35;;;;;;;9.76;51.64;100257.69;4497402;31;35161;-63
2023/04/10 00:43:35;;;;;;;4.78;4.07;;;;;;;9.41;52.47;100255.41;4495153;31;35087;-63
2023/04/10 00:46:03;;;;;;;7.57;5.43;;;;;;;9.86;51.27;100248.13;4495641;31;33777;-63
2023/04/10 00:48:32;;;;;;;5.95;4.18;;;;;;;10.09;50.89;100260.03;4495057;31;33924;-63
2023/04/10 00:51:00;;;;;;;7.30;3.72;;;;;;;10.25;50.22;100252.72;4497914;31;34059;-63
2023/04/10 00:53:28;;;;;;;4.20;2.70;;;;;;;10.14;50.46;100249.88;4496689;31;34710;-62
2023/04/10 00:55:56;;;;;;;9.55;4.85;;;;;;;10.21;50.27;100248.53;4490034;31;33830;-63
2023/04/10 00:58:25;;;;;;;8.10;3.95;;;;;;;10.15;50.47;100248.94;4495934;31;33440;-63
2023/04/10 01:00:52;;;;;;;6.95;4.95;;;;;;;10.00;50.48;100245.44;4491167;31;33508;-63
2023/04/10 01:03:20;;;;;;;16.58;6.87;;;;;;;10.10;50.48;100252.84;4481411;31;34006;-65
2023/04/10 01:06:09;;;;;;;9.43;5.30;;;;;;;10.17;50.50;100247.00;4492785;31;34770;-64
2023/04/10 01:08:46;;;;;;;7.62;4.07;;;;;;;10.05;50.31;100245.16;4496180;31;32158;-62
2023/04/10 01:11:27;;;;;;;7.35;4.03;;;;;;;10.19;50.11;100244.25;4489949;31;33485;-63
2023/04/10 01:14:05;;;;;;;10.18;5.25;;;;;;;10.28;49.96;100243.69;4487970;31;33957;-66
2023/04/10 01:16:43;;;;;;;4.70;2.78;;;;;;;10.48;49.17;100237.00;4487784;31;33518;-64
2023/04/10 01:19:26;;;;;;;8.35;4.22;;;;;;;10.37;49.55;100236.84;4485666;31;32148;-63
2023/04/10 01:21:54;;;;;;;5.60;4.65;;;;;;;10.40;49.52;100231.28;4491188;31;33668;-65
2023/04/10 01:24:43;;;;;;;7.05;4.05;;;;;;;10.46;49.57;100231.75;4496274;31;34033;-65
2023/04/10 01:27:32;;;;;;;5.90;3.00;;;;;;;10.51;49.59;100233.28;4492587;31;32594;-64
2023/04/10 01:30:01;;;;;;;10.98;5.30;;;;;;;10.54;49.42;100233.91;4493415;31;33631;-64
2023/04/10 01:32:33;;;;;;;13.32;6.07;;;;;;;10.68;48.96;100233.84;4486080;31;32751;-62
2023/04/10 01:35:04;;;;;;;8.40;4.70;;;;;;;10.68;49.20;100232.97;4485620;31;33807;-62
2023/04/10 01:37:33;;;;;;;10.55;5.97;;;;;;;10.72;48.98;100224.66;4492805;31;33538;-64
2023/04/10 01:40:08;;;;;;;11.55;4.40;;;;;;;10.86;48.80;100228.22;4484764;31;33222;-64
2023/04/10 01:42:41;;;;;;;8.07;4.03;;;;;;;10.77;48.79;100227.00;4496111;31;33686;-64
2023/04/10 01:45:17;;;;;;;10.05;5.45;;;;;;;11.00;47.99;100224.56;4487222;31;35112;-64
2023/04/10 01:47:44;;;;;;;4.55;3.10;;;;;;;11.09;47.63;100226.63;4492601;31;33677;-64
2023/04/10 01:50:13;;;;;;;9.38;5.72;;;;;;;11.13;47.53;100228.13;4493417;31;33239;-64
2023/04/10 01:52:41;;;;;;;16.92;6.18;;;;;;;11.13;47.25;100230.78;4491527;31;33596;-63
2023/04/10 01:55:12;;;;;;;13.32;5.35;;;;;;;11.07;47.44;100226.72;4483954;31;33797;-64
2023/04/10 01:57:41;;;;;;;8.57;4.32;;;;;;;11.17;47.06;100229.63;4495575;31;34067;-63
2023/04/10 02:00:09;;;;;;;3.10;2.85;;;;;;;11.09;47.23;100230.16;4492509;31;34399;-64
2023/04/10 02:02:41;;;;;;;4.68;2.53;;;;;;;10.46;49.02;100215.72;4497180;31;33685;-64
2023/04/10 02:05:09;;;;;;;9.40;4.87;;;;;;;10.55;49.33;100219.56;4491787;31;34059;-63
2023/04/10 02:07:45;;;;;;;15.82;5.10;;;;;;;10.71;48.79;100230.09;4483582;31;33806;-63
2023/04/10 02:10:22;;;;;;;4.30;3.50;;;;;;;10.66;48.81;100224.22;4479894;31;33170;-63
2023/04/10 02:13:00;;;;;;;4.40;3.65;;;;;;;10.69;48.18;100218.66;4487112;31;33400;-63
2023/04/10 02:15:31;;;;;;;6.15;3.70;;;;;;;10.58;48.47;100224.72;4495917;31;34020;-63
2023/04/10 02:17:59;;;;;;;17.52;5.75;;;;;;;10.62;48.69;100225.34;4482500;31;34825;-63
2023/04/10 02:20:28;;;;;;;6.28;4.78;;;;;;;10.67;48.59;100223.25;4487985;31;33289;-63
2023/04/10 02:22:56;;;;;;;5.40;3.95;;;;;;;10.50;49.36;100224.38;4496665;31;33426;-64
2023/04/10 02:25:25;;;;;;;9.52;5.78;;;;;;;10.62;48.87;100222.69;4485971;31;35138;-64
2023/04/10 02:27:52;;;;;;;3.92;3.30;;;;;;;10.57;48.91;100228.34;4491881;31;33581;-63
2023/04/10 02:30:20;;;;;;;6.47;3.80;;;;;;;10.25;49.93;100227.78;4496923;31;34904;-64
2023/04/10 02:32:48;;;;;;;9.73;5.47;;;;;;;10.22;50.25;100226.16;4497915;31;33721;-63
2023/04/10 02:35:17;;;;;;;5.45;4.03;;;;;;;10.27;49.79;100225.88;4496731;31;35071;-62
2023/04/10 02:37:46;;;;;;;3.97;3.22;;;;;;;9.99;50.76;100224.16;4495524;31;33923;-63
2023/04/10 02:40:14;;;;;;;10.38;4.00;;;;;;;10.05;50.39;100229.09;4495794;31;34039;-64
2023/04/10 02:42:42;;;;;;;4.18;2.87;;;;;;;9.94;50.79;100218.22;4494759;31;33299;-64
2023/04/10 02:45:10;;;;;;;9.48;4.53;;;;;;;9.78;50.99;100211.19;4492256;31;35011;-63
2023/04/10 02:47:38;;;;;;;9.70;4.90;;;;;;;9.72;51.39;100211.56;4493051;31;33985;-63
2023/04/10 02:50:06;;;;;;;6.15;3.20;;;;;;;10.07;50.36;100210.25;4489840;31;34087;-65
2023/04/10 02:52:35;;;;;;;4.30;2.92;;;;;;;10.34;49.66;100213.00;4494148;31;33945;-63
2023/04/10 02:55:03;;;;;;;4.65;3.78;;;;;;;10.47;49.16;100206.72;4496755;31;33779;-63
2023/04/10 02:57:31;;;;;;;3.87;3.05;;;;;;;10.58;48.53;100199.78;4491567;31;33764;-63
2023/04/10 02:59:58;;;;;;;18.15;4.05;;;;;;;10.62;48.54;100207.47;4496523;31;33326;-64
2023/04/10 03:02:26;;;;;;;4.97;3.78;;;;;;;10.73;47.87;100206.78;4489291;31;32820;-64
2023/04/10 03:04:55;;;;;;;5.87;3.12;;;;;;;10.84;47.19;100206.03;4492812;31;35314;-63
2023/04/10 03:07:23;;;;;;;4.45;3.17;;;;;;;10.71;47.42;100209.53;4497014;31;34967;-63
2023/04/10 03:09:50;;;;;;;2.80;2.25;;;;;;;10.66;47.70;100206.34;4492434;31;34373;-63
2023/04/10 03:12:19;;;;;;;6.50;3.58;;;;;;;10.68;47.75;100199.03;4496972;31;32517;-63
2023/04/10 03:14:46;;;;;;;5.80;4.07;;;;;;;10.86;47.17;100199.59;4497204;31;33663;-63
2023/04/10 03:17:14;;;;;;;8.38;5.68;;;;;;;10.86;46.71;100196.94;4496765;31;34745;-63
2023/04/10 03:19:42;;;;;;;7.97;4.40;;;;;;;10.61;47.16;100200.41;4488238;31;33376;-63
2023/04/10 03:22:09;;;;;;;4.75;3.08;;;;;;;10.39;47.59;100197.47;4488710;31;33934;-63
2023/04/10 03:24:40;;;;;;;4.12;2.42;;;;;;;10.43;47.48;100194.50;4495815;31;33978;-65
2023/04/10 03:27:07;;;;;;;8.25;3.42;;;;;;;10.44;47.36;100196.22;4489537;31;33965;-65
2023/04/10 03:29:35;;;;;;;7.53;3.47;;;;;;;10.52;47.06;100193.00;4490386;31;34368;-65
2023/04/10 03:32:02;;;;;;;6.55;3.70;;;;;;;10.48;47.38;100194.19;4491710;31;34740;-65
2023/04/10 03:34:30;;;;;;;5.10;3.05;;;;;;;10.21;48.34;100197.72;4487378;31;33768;-63
2023/04/10 03:36:57;;;;;;;6.43;4.20;;;;;;;10.18;48.55;100192.56;4495469;31;33948;-63
2023/04/10 03:39:25;;;;;;;11.35;5.68;;;;;;;9.82;49.31;100193.13;4493584;31;33558;-65
2023/04/10 03:41:53;;;;;;;6.32;3.83;;;;;;;9.83;49.45;100194.00;4496371;31;34527;-63
2023/04/10 03:44:23;;;;;;;6.80;4.30;;;;;;;9.72;50.04;100205.38;4483348;31;35260;-64
2023/04/10 03:46:50;;;;;;;6.12;4.22;;;;;;;9.90;49.40;100198.84;4489946;31;34739;-65
2023/04/10 03:49:18;;;;;;;7.62;5.82;;;;;;;10.02;49.14;100198.06;4489825;31;33124;-65
2023/04/10 03:51:46;;;;;;;4.20;3.28;;;;;;;9.98;49.45;100209.91;4496020;31;33626;-62
2023/04/10 03:54:13;;;;;;;3.45;3.12;;;;;;;10.00;49.85;100201.78;4494828;31;33969;-65
2023/04/10 03:56:41;;;;;;;8.95;6.05;;;;;;;9.75;50.38;100205.16;4490479;31;34653;-63
2023/04/10 03:59:09;;;;;;;4.65;3.67;;;;;;;9.25;51.73;100209.25;4485750;31;33281;-63
2023/04/10 04:01:38;;;;;;;4.10;3.42;;;;;;;9.19;51.71;100206.94;4494730;31;32687;-63
2023/04/10 04:04:06;;;;;;;4.35;3.05;;;;;;;8.99;52.30;100210.81;4486563;31;33160;-63
2023/04/10 04:06:40;;;;;;;4.22;3.00;;;;;;;9.33;51.19;100209.59;4494490;31;33500;-63
2023/04/10 04:09:07;;;;;;;3.05;2.70;;;;;;;9.21;51.67;100213.91;4495926;31;34122;-64
2023/04/10 04:11:37;;;;;;;5.07;3.72;;;;;;;9.44;50.76;100216.97;4491976;31;33629;-63
2023/04/10 04:14:05;;;;;;;7.87;4.22;;;;;;;9.31;51.71;100212.38;4496854;31;33332;-65
2023/04/10 04:16:35;;;;;;;5.07;2.40;;;;;;;9.04;52.66;100214.91;4494112;31;33645;-63
2023/04/10 04:19:04;;;;;;;8.52;4.07;;;;;;;9.10;52.67;100222.56;4497464;31;33448;-64
2023/04/10 04:21:32;;;;;;;4.32;3.33;;;;;;;9.38;52.24;100214.69;4494711;31;33691;-64
2023/04/10 04:24:00;;;;;;;7.93;4.53;;;;;;;9.54;52.14;100215.44;4489689;31;33824;-65
2023/04/10 04:26:29;;;;;;;9.73;3.83;;;;;;;9.69;51.71;100214.44;4494915;31;35563;-67
2023/04/10 04:28:59;;;;;;;5.60;4.15;;;;;;;9.94;50.86;100219.06;4497338;31;33383;-71
2023/04/10 04:31:31;;;;;;;5.20;2.70;;;;;;;10.00;50.29;100209.81;4492996;31;34983;-67
2023/04/10 04:34:00;;;;;;;5.20;3.28;;;;;;;10.02;50.33;100221.28;4491263;31;35028;-63
2023/04/10 04:36:28;;;;;;;11.02;4.65;;;;;;;10.16;50.25;100228.38;4489980;31;33521;-62
2023/04/10 04:38:56;;;;;;;7.55;5.15;;;;;;;10.06;50.89;100225.47;4495926;31;34661;-65
2023/04/10 04:41:23;;;;;;;6.65;4.20;;;;;;;10.39;49.29;100219.72;4496178;31;33955;-63
2023/04/10 04:43:54;;;;;;;6.10;5.07;;;;;;;10.36;49.47;100219.06;4489349;31;32381;-65
2023/04/10 04:46:22;;;;;;;9.32;3.22;;;;;;;10.37;49.84;100218.09;4489712;31;33863;-64
2023/04/10 04:48:50;;;;;;;5.00;3.22;;;;;;;10.60;49.32;100225.47;4495665;31;33013;-65
2023/04/10 04:51:18;;;;;;;4.05;2.78;;;;;;;10.62;48.87;100228.03;4496507;31;33972;-64
2023/04/10 04:53:46;;;;;;;7.05;4.97;;;;;;;10.76;48.69;100233.34;4493891;31;34107;-63
2023/04/10 04:56:14;;;;;;;6.25;3.30;;;;;;;10.79;48.75;100237.63;4495835;31;34024;-64
2023/04/10 04:58:41;;;;;;;2.62;2.03;;;;;;;11.03;47.57;100232.41;4493084;31;33360;-63
2023/04/10 05:01:09;;;;;;;5.75;3.10;;;;;;;11.12;47.28;100232.63;4493025;31;34855;-64
2023/04/10 05:03:40;;;;;;;8.70;6.37;;;;;;;11.03;47.48;100235.94;4491398;31;34072;-63
2023/04/10 05:06:11;;;;;;;10.30;5.03;;;;;;;11.03;47.76;100235.94;4484415;31;34813;-64
2023/04/10 05:08:40;;;;;;;9.73;6.57;;;;;;;11.05;47.99;100244.72;4492463;31;33444;-63
2023/04/10 05:11:07;;;;;;;6.32;4.82;;;;;;;11.11;48.03;100254.19;4485049;31;33509;-65
2023/04/10 05:13:35;;;;;;;8.77;5.07;;;;;;;11.15;48.01;100251.16;4494457;31;35375;-63
2023/04/10 05:16:05;;;;;;;7.35;5.25;;;;;;;11.22;48.08;100254.28;4494142;31;32767;-67
2023/04/10 05:18:34;;;;;;;5.97;4.35;;;;;;;11.69;46.40;100258.13;4495287;31;34895;-63
2023/04/10 05:21:02;;;;;;;12.93;6.50;;;;;;;11.93;45.65;100254.69;4492310;31;32677;-63
2023/04/10 05:23:31;;;;;;;5.90;4.10;;;;;;;11.69;46.21;100255.44;4491282;31;33857;-63
2023/04/10 05:25:59;;;;;;;11.23;7.30;;;;;;;11.84;45.99;100254.34;4494505;31;35051;-65
2023/04/10 05:28:29;;;;;;;12.37;6.95;;;;;;;11.78;46.19;100254.78;4492429;31;33315;-66
2023/04/10 05:30:57;;;;;;;6.72;5.32;;;;;;;11.85;46.16;100257.94;4491219;31;34120;-63
2023/04/10 05:33:24;;;;;;;10.68;7.50;;;;;;;11.85;46.11;100257.94;4497284;31;33936;-63
2023/04/10 05:35:55;;;;;;;8.10;5.70;;;;;;;11.79;46.54;100256.50;4497436;31;33894;-63
2023/04/10 05:38:23;;;;;;;9.32;7.00;;;;;;;11.91;47.09;100259.28;4482861;31;34514;-63
2023/04/10 05:40:51;;;;;;;6.45;4.12;;;;;;;12.18;46.11;100256.44;4498376;31;33602;-64
2023/04/10 05:43:20;;;;;;;10.35;5.95;;;;;;;12.32;46.23;100269.69;4492987;31;34842;-63
2023/04/10 05:45:50;;;;;;;12.02;6.95;;;;;;;12.42;46.62;100268.03;4487431;31;33713;-63
2023/04/10 05:48:18;;;;;;;8.40;5.57;;;;;;;12.48;46.88;100261.34;4494598;31;34619;-64
2023/04/10 05:50:46;;;;;;;12.27;5.53;;;;;;;12.61;46.82;100259.47;4495540;31;35060;-64
2023/04/10 05:53:13;;;;;;;10.93;6.55;;;;;;;13.17;45.24;100248.06;4489642;31;35525;-65
2023/04/10 05:55:41;;;;;;;19.05;8.93;;;;;;;13.10;45.62;100253.06;4498961;31;33885;-63
2023/04/10 05:58:11;;;;;;;9.13;4.97;;;;;;;13.19;45.79;100257.72;4496502;31;33260;-62
2023/04/10 06:00:39;;;;;;;8.77;5.68;;;;;;;14.03;44.55;100255.59;4491406;31;33848;-63
2023/04/10 06:03:07;;;;;;;8.60;6.95;;;;;;;14.66;42.98;100251.28;4497141;31;35222;-64
2023/04/10 06:05:37;;;;;;;11.88;7.05;;;;;;;14.32;43.38;100244.28;4493949;31;33914;-64
2023/04/10 06:08:05;;;;;;;22.50;5.97;;;;;;;13.99;44.46;100248.72;4496364;31;33618;-63
2023/04/10 06:10:33;;;;;;;9.93;7.12;;;;;;;13.83;45.33;100265.25;4497361;31;33796;-66
2023/04/10 06:13:00;;;;;;;15.68;6.00;;;;;;;13.52;45.88;100254.25;4496916;31;33670;-63
2023/04/10 06:15:28;;;;;;;9.77;8.13;;;;;;;13.24;47.11;100252.88;4496116;31;33840;-64
2023/04/10 06:17:56;;;;;;;7.87;5.40;;;;;;;13.62;46.37;100266.97;4495628;31;32066;-65
2023/04/10 06:20:24;;;;;;;9.20;4.75;;;;;;;13.38;47.47;100262.53;4493288;31;32261;-63
2023/04/10 06:22:52;;;;;;;10.48;6.55;;;;;;;13.78;46.72;100267.47;4496069;31;32802;-65
2023/04/10 06:25:20;;;;;;;10.45;7.05;;;;;;;13.81;46.61;100263.69;4495534;31;33717;-63
2023/04/10 06:27:47;;;;;;;13.27;7.87;;;;;;;13.57;47.47;100266.47;4490452;31;33008;-65
2023/04/10 06:30:15;;;;;;;16.50;9.82;;;;;;;13.89;46.89;100258.53;4491123;31;34206;-65
2023/04/10 06:32:43;;;;;;;23.52;9.35;;;;;;;13.68;47.47;100261.97;4497130;31;33991;-66
2023/04/10 06:35:10;;;;;;;11.70;6.55;;;;;;;14.28;46.22;100253.56;4489617;31;33637;-63
2023/04/10 06:37:38;;;;;;;11.90;8.57;;;;;;;14.39;45.52;100251.72;4495189;31;33757;-64
2023/04/10 06:40:08;;;;;;;12.02;8.82;;;;;;;14.03;46.98;100250.22;4494953;31;33781;-66
2023/04/10 06:42:36;;;;;;;12.75;8.38;;;;;;;13.71;47.52;100255.50;4493357;31;32875;-64
2023/04/10 06:45:06;;;;;;;6.07;3.58;;;;;;;13.94;47.54;100259.88;4485813;31;33772;-64
2023/04/10 06:47:33;;;;;;;13.15;7.90;;;;;;;14.51;46.16;100254.41;4494401;31;33011;-66
2023/04/10 06:50:01;;;;;;;11.98;8.45;;;;;;;14.86;45.41;100254.13;4496615;31;33685;-63
2023/04/10 06:52:29;;;;;;;12.18;8.48;;;;;;;15.19;44.91;100253.13;4492222;31;33871;-66
2023/04/10 06:54:57;;;;;;;9.05;6.10;;;;;;;15.22;45.16;100246.59;4499201;31;33785;-65
2023/04/10 06:57:24;;;;;;;8.23;5.18;;;;;;;15.33;44.87;100255.47;4497679;31;33655;-63
2023/04/10 06:59:52;;;;;;;13.05;6.20;;;;;;;15.53;43.60;100251.03;4494988;31;33813;-63
2023/04/10 07:02:19;;;;;;;10.02;6.57;;;;;;;15.08;44.90;100245.94;4492564;31;33932;-67
2023/04/10 07:04:47;;;;;;;14.40;6.53;;;;;;;15.33;44.88;100251.91;4494902;31;33790;-65
2023/04/10 07:07:15;;;;;;;13.23;7.50;;;;;;;15.46;43.56;100252.56;4493141;31;31731;-63
2023/04/10 07:09:42;;;;;;;16.73;9.63;;;;;;;15.79;43.16;100245.22;4495343;31;33607;-65
2023/04/10 07:12:10;;;;;;;11.52;8.32;;;;;;;15.93;42.98;100255.66;4495140;31;34200;-66
2023/04/10 07:14:37;;;;;;;18.75;8.63;;;;;;;15.96;42.82;100255.38;4496166;31;32465;-65
2023/04/10 07:17:05;;;;;;;10.57;6.22;;;;;;;15.67;43.60;100249.00;4497203;31;33176;-65
2023/04/10 07:19:32;;;;;;;16.00;8.30;;;;;;;16.15;42.02;100246.47;4491967;31;33485;-64
2023/04/10 07:22:00;;;;;;;13.25;7.37;;;;;;;15.89;42.02;100254.22;4491243;31;33906;-66
2023/04/10 07:24:28;;;;;;;10.18;6.40;;;;;;;16.17;42.26;100249.03;4489823;31;33605;-67
2023/04/10 07:26:56;;;;;;;11.07;7.72;;;;;;;16.59;40.78;100241.56;4498893;31;33473;-65
2023/04/10 07:29:23;;;;;;;10.48;6.70;;;;;;;16.28;41.06;100247.06;4488817;31;34268;-65
2023/04/10 07:31:51;;;;;;;12.20;7.15;;;;;;;16.73;40.30;100249.25;4495800;31;34062;-65
2023/04/10 07:34:18;;;;;;;15.57;8.80;;;;;;;16.22;41.42;100253.03;4498251;31;32357;-65
2023/04/10 07:36:46;;;;;;;10.20;7.20;;;;;;;16.37;40.89;100253.50;4494650;31;34608;-65
2023/04/10 07:39:13;;;;;;;14.95;6.57;;;;;;;16.61;40.71;100257.66;4496485;31;33976;-66
2023/04/10 07:41:41;;;;;;;11.15;7.20;;;;;;;16.72;40.72;100252.94;4498609;31;33606;-66
2023/04/10 07:44:09;;;;;;;16.48;10.20;;;;;;;16.72;40.37;100241.28;4490570;31;35301;-66
2023/04/10 07:46:36;;;;;;;13.07;7.50;;;;;;;16.95;39.52;100248.16;4490197;31;34430;-66
2023/04/10 07:49:04;;;;;;;11.63;7.37;;;;;;;16.62;40.36;100246.69;4496058;31;35009;-66
2023/04/10 07:51:35;;;;;;;12.30;8.23;;;;;;;16.79;40.09;100247.00;4497102;31;33990;-66
2023/04/10 07:54:03;;;;;;;11.55;6.40;;;;;;;16.96;39.28;100227.37;4488280;31;36595;-69
2023/04/10 07:56:30;;;;;;;12.85;6.35;;;;;;;17.21;38.95;100229.47;4494066;31;33217;-65
2023/04/10 07:58:59;;;;;;;7.93;5.93;;;;;;;17.49;38.33;100229.50;4497521;31;33963;-66
2023/04/10 08:01:30;;;;;;;8.80;5.57;;;;;;;17.82;37.25;100217.31;4494539;31;33688;-66
2023/04/10 08:03:58;;;;;;;8.20;4.60;;;;;;;16.85;37.80;100228.34;4496531;31;33840;-65
2023/04/10 08:06:27;;;;;;;7.78;5.35;;;;;;;17.82;36.48;100225.44;4499200;31;32851;-66
2023/04/10 08:08:54;;;;;;;7.62;5.07;;;;;;;18.01;34.98;100219.09;4496210;31;34753;-67
2023/04/10 08:11:26;;;;;;;10.15;5.15;;;;;;;17.96;35.41;100221.38;4499882;31;34848;-65
2023/04/10 08:14:00;;;;;;;9.20;5.00;;;;;;;18.24;34.37;100211.38;4499023;31;33259;-67
2023/04/10 08:16:30;;;;;;;9.68;5.32;;;;;;;18.55;33.69;100209.13;4492432;31;33503;-66
2023/04/10 08:18:58;;;;;;;11.95;5.95;;;;;;;18.48;33.29;100205.34;4495134;31;34664;-63
2023/04/10 08:21:27;;;;;;;6.57;5.07;;;;;;;18.94;32.90;100207.97;4485636;31;32836;-63
2023/04/10 08:24:00;;;;;;;5.15;3.70;;;;;;;18.87;33.61;100210.47;4487298;31;33842;-64
2023/04/10 08:26:28;;;;;;;7.95;5.35;;;;;;;18.86;33.27;100208.78;4497156;31;33168;-65
2023/04/10 08:28:57;;;;;;;10.52;7.60;;;;;;;18.89;33.27;100208.47;4495059;31;33730;-64
2023/04/10 08:31:26;;;;;;;9.02;6.25;;;;;;;19.31;31.95;100207.75;4497874;31;33853;-63
2023/04/10 08:33:54;;;;;;;12.48;7.47;;;;;;;19.04;32.20;100208.78;4496777;31;35096;-64
2023/04/10 08:36:22;;;;;;;12.52;7.37;;;;;;;19.26;32.83;100210.09;4488065;31;33676;-65
2023/04/10 08:38:49;;;;;;;13.30;6.50;;;;;;;19.64;32.43;100200.66;4495394;31;34558;-66
2023/04/10 08:41:18;;;;;;;7.97;5.78;;;;;;;19.13;33.12;100205.06;4498467;31;34101;-63
2023/04/10 08:43:46;;;;;;;10.98;6.65;;;;;;;18.95;32.49;100194.28;4488663;31;33630;-64
2023/04/10 08:46:14;;;;;;;11.10;7.10;;;;;;;19.20;32.54;100195.31;4495803;31;33690;-63
2023/04/10 08:48:45;;;;;;;10.65;7.22;;;;;;;19.52;32.15;100189.22;4483627;31;34700;-64
2023/04/10 08:51:17;;;;;;;8.73;5.87;;;;;;;18.92;32.25;100186.47;4494748;31;35025;-63
2023/04/10 08:53:50;;;;;;;10.85;6.22;;;;;;;18.62;33.84;100199.41;4490518;31;33608;-63
2023/04/10 08:56:19;;;;;;;9.63;5.90;;;;;;;19.33;32.50;100200.31;4496963;31;33466;-68
2023/04/10 08:58:50;;;;;;;11.93;6.55;;;;;;;19.19;33.13;100201.72;4499211;31;33866;-64
2023/04/10 09:01:19;;;;;;;14.45;7.40;;;;;;;19.18;32.25;100200.03;4497222;31;35182;-66
2023/04/10 09:03:47;;;;;;;9.20;5.75;;;;;;;19.03;32.78;100194.31;4496356;31;33905;-64
2023/04/10 09:06:14;;;;;;;12.30;6.80;;;;;;;19.08;32.45;100202.00;4500038;31;32151;-62
2023/04/10 09:08:42;;;;;;;10.93;5.28;;;;;;;18.91;32.79;100201.03;4501323;31;33799;-61
2023/04/10 09:11:11;;;;;;;8.30;5.43;;;;;;;19.04;32.83;100195.19;4492508;31;33744;-61
2023/04/10 09:13:43;;;;;;;8.23;4.62;;;;;;;18.79;33.04;100189.56;4488610;31;34154;-63
2023/04/10 09:16:12;;;;;;;6.05;5.20;;;;;;;18.96;32.87;100187.84;4498787;31;33331;-62
2023/04/10 09:18:47;;;;;;;9.07;6.60;;;;;;;18.95;32.60;100178.00;4493200;31;35038;-63
2023/04/10 09:21:19;;;;;;;7.70;5.18;;;;;;;19.26;32.06;100188.38;4492898;31;33977;-64
2023/04/10 09:23:48;;;;;;;10.32;6.22;;;;;;;19.16;31.32;100177.62;4499105;31;34012;-63
2023/04/10 09:26:32;;;;;;;10.38;6.87;;;;;;;18.73;30.63;100179.34;4494704;31;33543;-63
2023/04/10 09:29:05;;;;;;;11.27;6.80;;;;;;;19.38;31.15;100178.94;4490567;31;33933;-63
2023/04/10 09:31:35;;;;;;;14.13;7.40;;;;;;;19.94;29.93;100180.28;4498558;31;34077;-63
2023/04/10 09:34:16;;;;;;;10.82;7.00;;;;;;;19.51;29.63;100176.66;4498066;31;34878;-62
2023/04/10 09:36:55;;;;;;;10.40;7.57;;;;;;;19.55;31.56;100171.78;4492204;31;34680;-63
2023/04/10 09:39:39;;;;;;;9.27;6.45;;;;;;;19.83;32.03;100169.69;4490501;31;33590;-63
2023/04/10 09:42:08;;;;;;;12.60;7.63;;;;;;;19.72;31.42;100164.56;4498936;31;33964;-63
2023/04/10 09:44:37;;;;;;;10.13;6.32;;;;;;;19.75;30.53;100162.37;4491662;31;34912;-65
2023/04/10 09:47:15;;;;;;;11.35;6.15;;;;;;;19.78;30.33;100161.22;4495980;31;32959;-63
2023/04/10 09:49:47;;;;;;;14.20;9.88;;;;;;;20.56;29.53;100157.31;4493127;31;33710;-64
2023/04/10 09:52:21;;;;;;;7.43;5.53;;;;;;;20.12;30.49;100155.69;4485698;31;32872;-63
2023/04/10 09:54:49;;;;;;;10.63;4.80;;;;;;;20.00;29.81;100151.59;4485678;31;34768;-63
2023/04/10 09:57:18;;;;;;;12.37;6.68;;;;;;;19.74;30.47;100149.81;4493657;31;33310;-64
2023/04/10 09:59:54;;;;;;;16.27;6.78;;;;;;;20.03;29.80;100148.53;4494424;31;33520;-68
2023/04/10 10:02:23;;;;;;;8.68;6.20;;;;;;;20.03;30.56;100151.25;4491125;31;32530;-69
2023/04/10 10:04:51;;;;;;;8.10;6.07;;;;;;;20.52;29.16;100140.50;4486231;31;32576;-64
2023/04/10 10:07:21;;;;;;;10.88;7.00;;;;;;;19.60;29.56;100142.25;4487251;31;33580;-64
2023/04/10 10:09:50;;;;;;;8.18;6.10;;;;;;;19.67;29.09;100132.47;4489563;31;33736;-66
2023/04/10 10:12:22;;;;;;;10.85;5.93;;;;;;;19.64;29.73;100135.50;4492760;31;35027;-63
2023/04/10 10:15:09;;;;;;;8.75;5.93;;;;;;;20.23;28.24;100135.50;4496661;31;35202;-64
2023/04/10 10:17:45;;;;;;;7.90;5.78;;;;;;;20.14;28.11;100134.63;4484072;31;32410;-64
2023/04/10 10:20:17;;;;;;;9.13;6.20;;;;;;;19.99;27.91;100144.44;4486103;31;34875;-64
2023/04/10 10:22:45;;;;;;;7.32;4.97;;;;;;;20.00;27.97;100133.44;4490260;31;33878;-64
2023/04/10 10:25:13;;;;;;;11.63;8.15;;;;;;;19.60;28.42;100114.25;4496454;31;33808;-66
2023/04/10 10:27:40;;;;;;;8.02;4.55;;;;;;;18.58;30.06;100130.22;4494220;31;33692;-66
2023/04/10 10:30:11;;;;;;;11.30;7.07;;;;;;;19.16;29.40;100134.22;4495194;31;34868;-64
2023/04/10 10:32:57;;;;;;;6.45;4.80;;;;;;;19.36;29.80;100131.25;4495693;31;34032;-65
2023/04/10 10:35:26;;;;;;;7.62;4.65;;;;;;;19.68;28.51;100126.03;4493555;31;34410;-64
2023/04/10 10:38:00;;;;;;;11.70;6.65;;;;;;;19.57;28.83;100130.88;4498564;31;34225;-64
2023/04/10 10:40:46;;;;;;;9.10;5.40;;;;;;;19.66;27.91;100133.47;4489121;31;34697;-66
2023/04/10 10:43:58;;;;;;;10.13;6.22;;;;;;;19.44;28.56;100132.16;4484537;31;34159;-64
2023/04/10 10:46:37;;;;;;;8.50;5.30;;;;;;;19.24;28.68;100128.00;4484962;31;33277;-64
2023/04/10 10:49:04;;;;;;;6.93;4.68;;;;;;;19.25;29.47;100122.41;4496406;31;33435;-65
2023/04/10 10:51:49;;;;;;;8.57;5.57;;;;;;;18.98;29.71;100122.59;4499451;31;33811;-63
2023/04/10 10:54:33;;;;;;;12.20;7.72;;;;;;;19.21;29.77;100120.19;4490267;31;32677;-65
2023/04/10 10:57:04;;;;;;;9.07;5.22;;;;;;;18.15;30.78;100125.59;4494555;31;33867;-64
2023/04/10 10:59:46;;;;;;;9.35;6.20;;;;;;;18.31;30.54;100128.47;4498157;31;32369;-66
2023/04/10 11:02:16;;;;;;;10.70;5.70;;;;;;;18.65;30.43;100122.34;4492777;31;33820;-66
2023/04/10 11:04:45;;;;;;;7.37;4.95;;;;;;;17.76;31.28;100128.56;4494355;31;32804;-64
2023/04/10 11:07:13;;;;;;;7.75;4.57;;;;;;;18.02;31.82;100125.97;4493944;31;34979;-66
2023/04/10 11:09:46;;;;;;;7.57;3.47;;;;;;;17.92;32.09;100128.75;4486387;31;33765;-64
2023/04/10 11:12:14;;;;;;;8.23;4.40;;;;;;;17.49;32.50;100126.69;4494366;31;33828;-64
2023/04/10 11:14:44;;;;;;;8.55;5.10;;;;;;;17.14;32.65;100117.47;4483832;31;34031;-63
2023/04/10 11:17:11;;;;;;;6.62;4.75;;;;;;;17.40;32.20;100123.03;4485993;31;34083;-63
2023/04/10 11:19:59;;;;;;;7.25;3.87;;;;;;;17.80;32.57;100113.72;4491999;31;33360;-64
2023/04/10 11:22:27;;;;;;;6.93;5.03;;;;;;;17.82;32.08;100117.16;4491567;31;33596;-64
2023/04/10 11:24:58;;;;;;;7.78;4.75;;;;;;;17.20;32.15;100113.28;4496610;31;33981;-64
2023/04/10 11:27:45;;;;;;;8.13;4.75;;;;;;;17.60;33.09;100107.56;4497233;31;34008;-64
2023/04/10 11:30:28;;;;;;;8.50;5.78;;;;;;;17.46;33.11;100111.63;4489124;31;33837;-66
2023/04/10 11:32:57;;;;;;;8.68;4.95;;;;;;;17.85;32.25;100106.00;4494224;31;33804;-63
2023/04/10 11:35:25;;;;;;;7.93;4.35;;;;;;;18.04;32.32;100104.16;4488418;31;33857;-63
2023/04/10 11:38:10;;;;;;;8.80;5.43;;;;;;;18.41;31.59;100106.72;4487865;31;33905;-66